This is the latest recevied weather packets stored in our database for station/object s55g-5. If no packets are shown the sender has not sent any weather packets the latest 10 day(s).
| Time | Temp. | Humidity | Pressure | Rain* | Wind** | Luminosity | Snow |
|---|---|---|---|---|---|---|---|
| 1777134558 | 23.33° C | 38% | 1015.1 hPa | 0 mm | - | - | - |
| 1777129744 | 24.44° C | 36% | 1015.4 hPa | 0 mm | - | - | - |
| 1777124164 | 25° C | 38% | 1015.4 hPa | 0 mm | - | - | - |
| 1777121644 | 25° C | 41% | 1015.7 hPa | 0 mm | - | - | - |
| 1777119618 | 25° C | 44% | 1015.9 hPa | 0 mm | - | - | - |
| 1777114938 | 24.44° C | 46% | 1016.3 hPa | 0 mm | - | - | - |
| 1777113364 | 23.89° C | 48% | 1016.1 hPa | 0 mm | - | - | - |
| 1777109223 | 22.78° C | 46% | 1016.8 hPa | 0 mm | - | - | - |
| 1777104004 | 19.44° C | 51% | 1017.4 hPa | 0 mm | - | - | - |
| 1777102024 | 17.78° C | 56% | 1017.3 hPa | 0 mm | - | - | - |
| 1777100944 | 16.67° C | 61% | 1017 hPa | 0 mm | - | - | - |
| 1777100404 | 15.56° C | 63% | 1017.3 hPa | 0 mm | - | - | - |
| 1777096938 | 11.11° C | 79% | 1017.3 hPa | 0 mm | - | - | - |
| 1777094958 | 7.78° C | 87% | 1017.4 hPa | 0 mm | - | - | - |
| 1777093744 | 6.67° C | 91% | 1017.1 hPa | 0 mm | - | - | - |
| 1777091898 | 4.44° C | 94% | 1017 hPa | 0 mm | - | - | - |
| 1777089604 | 4.44° C | 94% | 1016.7 hPa | 0 mm | - | - | - |
| 1777086004 | 5° C | 93% | 1017 hPa | 0 mm | - | - | - |
| 1777085779 | 5° C | 93% | 1016.8 hPa | 0 mm | - | - | - |
| 1777084564 | 5° C | 93% | 1016.8 hPa | 0 mm | - | - | - |
| 1777083484 | 5.56° C | 92% | 1017 hPa | 0 mm | - | - | - |
| 1777082944 | 5.56° C | 92% | 1016.9 hPa | 0 mm | - | - | - |
| 1777080424 | 5.56° C | 89% | 1016.8 hPa | 0 mm | - | - | - |
| 1777077904 | 6.11° C | 86% | 1017.2 hPa | 0 mm | - | - | - |
| 1777077364 | 6.11° C | 86% | 1017 hPa | 0 mm | - | - | - |
* Rain latest hour (hover to see other rain measurements)
** Current wind speed in m/s (hover to see current wind gust speed)